首页
METAR-TAF:

METAR-TAF

机场 :

科希策, 斯洛伐克

纬度: 48-39-47N, 经度: 021-14-28E, 海拔: 232米

当前天气观测

该预报发布于29分钟前的21:00 UTC
风速2节,风向多变
温度 18°C
湿度 94%
气压 1009 hPa
能见度10公里或以上
1500米以下无云,无积雨云

METAR: LZKZ 062100Z VRB02KT CAVOK 18/17 Q1009

时间: 23:29 (21:29 UTC)

预报

该预报发布于4小时和29分钟前的17:00 UTC
预报有效从06日的 18点(UTC)到 07日的 18点(UTC)
风速2节,风向多变
能见度10公里或以上
少量云层高于3000英尺
几率 40% :
短暂存在
从 06日的 18点(UTC)到 06日的 23点(UTC)
少量云层高于3000英尺, 积雨云.
多云层高于4000英尺
雷暴, 雨
成为
从 06日的 23点(UTC)到 07日的 01点(UTC)
能見度: 4000
少量云层高于1000英尺
轻雾
几率 40% :
短暂存在
从 07日的 01点(UTC)到 07日的 06点(UTC)
能見度: 1200
多云层高于300英尺
碎片雾
成为
从 07日的 06点(UTC)到 07日的 08点(UTC)
风速8节,风向
能见度10公里或以上
少量云层高于3000英尺, 塔状积云.
散云层高于4500英尺
短暂存在
从 07日的 12点(UTC)到 07日的 18点(UTC)
风速15节,风向,有时为25节阵风
能見度: 3000
少量云层高于1500英尺
散云层高于2500英尺, 积雨云.
多云层高于3000英尺
雷暴, 雨

TAF: LZKZ 061700Z 0618/0718 VRB02KT 9999 FEW030 PROB40 TEMPO 0618/0623 TSRA FEW030CB BKN040 BECMG 0623/0701 4000 BR FEW010 PROB40 TEMPO 0701/0706 1200 BCFG BKN003 BECMG 0706/0708 19008KT 9999 FEW030TCU SCT045 TEMPO 0712/0718 19015G25KT 3000 TSRA FEW015 SCT025CB BKN030

超过4000个机场的气象观测和天气预报(METAR&TAF报告)。

可查询的气象台以黄色和红色小点在地图上表示。

将鼠标移到小点上方,可查看气象台名称。

然后点击查看天气观测和预报。

如需切换地图:点击带黑十字的绿色按钮放大地图;点击带横线的绿色按钮缩小地图;或者点击绿色箭头查看邻近地区的地图。


METAR-TAF: